Time;durP1;ratioP1;P1;durP2;ratioP2;P2;SDS_P1;SDS_P2;PMS_P1;PMS_P2;Temp;Humidity;BMP_temperature;BMP_pressure;BME280_temperature;BME280_humidity;BME280_pressure;Samples;Min_cycle;Max_cycle;Signal;HPM_P1;HPM_P2
2022/01/18 00:02:27;;;;;;;4.50;1.70;;;;;;;0.64;60.28;100922.65;105905;1274;22685;-73
2022/01/18 00:04:54;;;;;;;4.50;1.50;;;;;;;0.67;60.32;100925.35;106136;1271;23166;-75
2022/01/18 00:07:21;;;;;;;4.80;1.30;;;;;;;0.70;60.37;100926.33;106371;1270;24310;-78
2022/01/18 00:09:49;;;;;;;4.30;1.40;;;;;;;0.71;60.21;100926.55;106386;1270;24273;-76
2022/01/18 00:17:53;;;;;;;5.40;2.10;;;;;;;0.73;60.29;100931.66;106322;1271;22632;-75
2022/01/18 00:20:32;;;;;;;3.80;1.60;;;;;;;0.71;60.28;100939.39;106280;1270;22565;-75
2022/01/18 00:23:00;;;;;;;5.90;2.00;;;;;;;0.70;60.49;100937.44;106367;1270;23998;-72
2022/01/18 00:25:28;;;;;;;6.10;1.80;;;;;;;0.70;60.48;100939.52;106203;1270;22762;-74
2022/01/18 00:27:55;;;;;;;6.40;2.00;;;;;;;0.71;60.50;100933.65;105991;1274;22581;-80
2022/01/18 00:35:42;;;;;;;3.50;1.90;;;;;;;0.66;60.76;100943.15;105686;1279;22669;-76
2022/01/18 00:38:27;;;;;;;6.00;1.70;;;;;;;0.67;60.78;100949.45;105704;1279;25430;-75
2022/01/18 00:40:56;;;;;;;3.20;1.50;;;;;;;0.68;60.86;100951.38;105619;1279;22608;-79
2022/01/18 00:43:25;;;;;;;4.30;1.80;;;;;;;0.68;60.90;100954.32;105530;1279;22944;-75
2022/01/18 00:45:52;;;;;;;5.00;2.20;;;;;;;0.65;60.86;100955.77;105856;1275;22734;-77
2022/01/18 00:48:20;;;;;;;5.40;2.20;;;;;;;0.61;60.81;100960.27;105888;1274;25634;-76
2022/01/18 00:50:48;;;;;;;5.70;1.90;;;;;;;0.59;61.08;100973.74;106009;1274;22560;-70
2022/01/18 00:53:18;;;;;;;5.20;2.40;;;;;;;0.57;61.12;100975.20;105465;1279;25264;-71
2022/01/18 00:55:59;;;;;;;7.00;2.30;;;;;;;0.56;61.28;100986.41;105576;1280;22664;-74
2022/01/18 00:58:26;;;;;;;5.40;2.50;;;;;;;0.54;61.31;100996.23;104942;1286;25328;-74
2022/01/18 01:00:53;;;;;;;5.30;2.20;;;;;;;0.54;61.34;100995.02;105186;1285;25540;-74
2022/01/18 01:03:20;;;;;;;6.30;1.80;;;;;;;0.54;61.41;100997.30;105221;1284;22704;-74
2022/01/18 01:05:59;;;;;;;4.40;2.20;;;;;;;0.54;61.45;100991.71;105333;1278;25675;-83
2022/01/18 01:08:26;;;;;;;7.70;2.80;;;;;;;0.51;61.47;100997.47;105739;1280;22541;-79
2022/01/18 01:10:54;;;;;;;7.00;2.40;;;;;;;0.50;61.62;101001.94;105767;1273;22624;-81
2022/01/18 01:13:21;;;;;;;6.20;2.30;;;;;;;0.49;61.63;101010.97;106072;1273;25355;-78
2022/01/18 01:43:30;;;;;;;7.60;2.90;;;;;;;-0.13;63.14;101045.52;106071;1275;26735;-73
2022/01/18 01:45:59;;;;;;;8.70;3.50;;;;;;;-0.18;63.21;101051.33;106056;1274;25303;-73
2022/01/18 01:48:26;;;;;;;9.90;3.10;;;;;;;-0.21;63.43;101053.95;105980;1274;25318;-74
2022/01/18 01:51:03;;;;;;;7.20;3.30;;;;;;;-0.25;63.55;101049.29;105980;1274;22853;-75
2022/01/18 01:53:34;;;;;;;8.00;3.10;;;;;;;-0.31;63.64;101051.45;106058;1274;22653;-77
2022/01/18 01:56:02;;;;;;;6.60;3.20;;;;;;;-0.36;63.75;101051.23;106268;1274;25401;-81
2022/01/18 01:58:30;;;;;;;6.30;3.20;;;;;;;-0.40;63.96;101048.80;106164;1270;22812;-76
2022/01/18 02:01:04;;;;;;;8.70;4.00;;;;;;;-0.44;63.96;101050.70;106903;1269;24222;-78
2022/01/18 02:03:31;;;;;;;5.20;3.20;;;;;;;-0.47;64.15;101043.29;107367;1268;23074;-78
2022/01/18 02:05:58;;;;;;;9.70;4.10;;;;;;;-0.52;64.22;101044.42;107071;1270;22533;-75
2022/01/18 02:08:26;;;;;;;8.30;3.50;;;;;;;-0.54;64.40;101056.97;107242;1268;24085;-75
2022/01/18 02:10:53;;;;;;;6.70;2.80;;;;;;;-0.55;64.56;101057.98;107606;1268;26513;-74
2022/01/18 02:13:20;;;;;;;7.50;4.20;;;;;;;-0.55;64.71;101062.98;107749;1268;22545;-74
2022/01/18 02:16:14;;;;;;;9.30;4.20;;;;;;;-0.58;64.76;101070.98;107262;1268;24238;-74
2022/01/18 02:24:13;;;;;;;9.80;4.20;;;;;;;-0.62;65.04;101065.25;106387;1268;26506;-75
2022/01/18 02:26:40;;;;;;;8.70;5.00;;;;;;;-0.67;65.07;101065.91;106210;1271;24229;-74
2022/01/18 02:29:10;;;;;;;12.60;4.40;;;;;;;-0.74;65.20;101066.77;106495;1270;22680;-74
2022/01/18 02:31:38;;;;;;;9.50;4.50;;;;;;;-0.81;65.42;101069.39;105829;1276;22794;-75
2022/01/18 02:34:11;;;;;;;10.10;4.60;;;;;;;-0.88;65.58;101063.70;105600;1280;22596;-79
2022/01/18 02:36:38;;;;;;;8.20;4.00;;;;;;;-0.89;65.57;101075.91;105564;1280;24285;-77
2022/01/18 02:39:07;;;;;;;9.70;4.40;;;;;;;-0.91;65.91;101081.55;105688;1280;23838;-80
2022/01/18 02:41:35;;;;;;;8.30;3.80;;;;;;;-0.90;65.89;101082.44;105748;1279;25313;-75
2022/01/18 02:44:12;;;;;;;9.60;4.60;;;;;;;-0.91;65.97;101081.19;105862;1280;22561;-72
2022/01/18 02:46:42;;;;;;;8.00;4.30;;;;;;;-0.89;66.07;101081.65;105711;1280;22641;-75
2022/01/18 02:49:10;;;;;;;8.70;4.10;;;;;;;-0.90;66.09;101076.21;105719;1274;22536;-72
2022/01/18 02:51:37;;;;;;;9.00;4.60;;;;;;;-0.96;66.18;101078.15;105755;1271;22678;-74
2022/01/18 02:54:07;;;;;;;9.00;3.60;;;;;;;-0.96;66.30;101076.81;105633;1278;26502;-73
2022/01/18 02:56:42;;;;;;;10.90;3.40;;;;;;;-0.97;66.36;101079.84;105533;1281;25695;-75
2022/01/18 02:59:17;;;;;;;8.30;4.10;;;;;;;-1.03;66.40;101075.61;105573;1281;24510;-76
2022/01/18 03:04:39;;;;;;;8.70;4.20;;;;;;;-1.06;66.77;101081.52;105558;1281;25379;-73
2022/01/18 03:07:07;;;;;;;6.70;3.30;;;;;;;-1.02;66.84;101086.55;105310;1281;25256;-75
2022/01/18 03:09:34;;;;;;;7.90;3.60;;;;;;;-1.00;66.81;101089.42;105349;1281;24233;-76
2022/01/18 03:12:02;;;;;;;10.20;4.00;;;;;;;-1.01;66.99;101089.02;105422;1279;24070;-75
2022/01/18 03:14:29;;;;;;;8.20;3.90;;;;;;;-0.99;67.00;101090.14;105721;1278;25260;-77
2022/01/18 03:16:56;;;;;;;10.90;4.50;;;;;;;-0.98;66.97;101088.45;105684;1277;24264;-77
2022/01/18 03:19:24;;;;;;;8.80;4.10;;;;;;;-1.00;66.92;101084.92;105714;1278;25256;-77
2022/01/18 03:21:53;;;;;;;9.00;3.80;;;;;;;-1.04;66.95;101086.42;105701;1276;24329;-79
2022/01/18 03:29:39;;;;;;;8.80;3.80;;;;;;;-1.12;67.14;101100.73;105314;1276;25603;-76
2022/01/18 03:32:07;;;;;;;11.50;3.30;;;;;;;-1.13;67.27;101109.50;105894;1273;25375;-76
2022/01/18 03:34:34;;;;;;;8.40;3.60;;;;;;;-1.13;67.38;101112.47;105411;1281;23945;-76
2022/01/18 03:37:01;;;;;;;12.00;3.90;;;;;;;-1.10;67.43;101117.09;105350;1281;24287;-76
2022/01/18 03:39:28;;;;;;;7.90;4.00;;;;;;;-1.12;67.47;101117.35;105340;1281;23241;-71
2022/01/18 03:42:09;;;;;;;7.50;3.60;;;;;;;-1.13;67.60;101119.38;105538;1279;24170;-76
2022/01/18 03:44:38;;;;;;;7.70;3.60;;;;;;;-1.14;67.71;101123.30;105401;1280;24363;-75
2022/01/18 03:47:05;;;;;;;7.20;3.20;;;;;;;-1.15;67.66;101125.68;105650;1279;25257;-74
2022/01/18 03:49:36;;;;;;;6.60;3.10;;;;;;;-1.20;67.62;101127.64;105717;1279;25346;-74
2022/01/18 03:52:03;;;;;;;10.50;3.60;;;;;;;-1.22;67.85;101131.69;105758;1271;25552;-75
2022/01/18 03:54:30;;;;;;;7.10;3.10;;;;;;;-1.21;67.98;101132.81;106420;1270;22708;-74
2022/01/18 03:56:58;;;;;;;7.20;3.40;;;;;;;-1.21;67.99;101135.17;106385;1268;24307;-76
2022/01/18 03:59:25;;;;;;;6.30;3.20;;;;;;;-1.21;68.13;101139.70;105862;1276;23073;-76
2022/01/18 04:01:52;;;;;;;8.30;3.60;;;;;;;-1.18;68.19;101145.55;105885;1276;25625;-78
2022/01/18 04:04:19;;;;;;;7.40;3.40;;;;;;;-1.18;68.04;101153.36;105906;1275;25399;-78
2022/01/18 04:06:46;;;;;;;7.10;3.00;;;;;;;-1.23;68.15;101157.22;106026;1274;23865;-77
2022/01/18 04:09:14;;;;;;;5.60;3.30;;;;;;;-1.24;68.28;101159.41;106064;1276;24504;-79
2022/01/18 04:11:42;;;;;;;9.60;4.30;;;;;;;-1.28;68.27;101162.70;105957;1275;25242;-77
2022/01/18 04:14:09;;;;;;;10.60;3.50;;;;;;;-1.29;68.43;101166.24;105994;1276;24222;-76
2022/01/18 04:16:44;;;;;;;9.50;4.00;;;;;;;-1.30;68.52;101168.98;106009;1276;23256;-79
2022/01/18 04:27:19;;;;;;;7.50;3.00;;;;;;;-1.31;68.85;101190.14;106050;1274;25355;-76
2022/01/18 04:29:46;;;;;;;6.00;3.10;;;;;;;-1.31;68.96;101194.34;106009;1274;22572;-80
2022/01/18 04:32:13;;;;;;;11.00;2.90;;;;;;;-1.36;68.80;101194.25;106029;1274;25488;-83
2022/01/18 04:34:40;;;;;;;5.50;2.70;;;;;;;-1.38;69.01;101199.36;105986;1274;24288;-79
2022/01/18 04:37:12;;;;;;;7.00;3.30;;;;;;;-1.36;69.16;101199.45;106035;1274;23965;-78
2022/01/18 04:39:41;;;;;;;9.40;3.50;;;;;;;-1.33;69.20;101205.98;106032;1270;25481;-79
2022/01/18 04:42:16;;;;;;;8.20;3.40;;;;;;;-1.33;69.23;101217.22;106246;1270;25311;-74
2022/01/18 04:50:14;;;;;;;8.60;2.90;;;;;;;-1.29;69.25;101230.06;106284;1270;25271;-75
2022/01/18 04:52:41;;;;;;;5.30;2.60;;;;;;;-1.27;69.40;101233.92;106268;1270;23930;-77
2022/01/18 04:55:10;;;;;;;6.70;2.80;;;;;;;-1.29;69.33;101239.39;106208;1270;24782;-77
2022/01/18 04:57:52;;;;;;;9.20;3.40;;;;;;;-1.27;69.41;101246.77;106280;1270;24255;-78
2022/01/18 05:00:21;;;;;;;7.40;2.90;;;;;;;-1.22;69.61;101255.45;106279;1270;24371;-76
2022/01/18 05:02:48;;;;;;;6.60;2.70;;;;;;;-1.23;69.69;101261.44;106300;1270;25423;-76
2022/01/18 05:05:24;;;;;;;7.60;3.20;;;;;;;-1.25;69.66;101259.46;106271;1270;25318;-80
2022/01/18 05:07:54;;;;;;;15.40;4.40;;;;;;;-1.26;70.10;101256.98;106296;1270;22694;-73
2022/01/18 05:10:25;;;;;;;10.10;3.20;;;;;;;-1.29;70.10;101264.11;106482;1270;26517;-75
2022/01/18 05:12:55;;;;;;;7.00;3.00;;;;;;;-1.31;70.42;101265.52;105956;1273;24261;-72
2022/01/18 05:23:24;;;;;;;8.20;3.90;;;;;;;-1.22;70.50;101261.84;105986;1277;24095;-76
2022/01/18 05:25:51;;;;;;;6.70;3.50;;;;;;;-1.19;70.54;101258.75;105892;1277;25580;-75
2022/01/18 05:28:18;;;;;;;7.80;3.40;;;;;;;-1.19;70.44;101258.21;106031;1277;25365;-80
2022/01/18 05:30:45;;;;;;;7.90;2.90;;;;;;;-1.21;70.42;101255.52;105168;1282;25384;-76
2022/01/18 05:33:12;;;;;;;7.10;2.80;;;;;;;-1.20;70.55;101261.77;105684;1279;22550;-75
2022/01/18 05:35:39;;;;;;;8.60;2.50;;;;;;;-1.20;70.61;101265.07;105664;1280;25386;-79
2022/01/18 05:38:08;;;;;;;8.30;2.80;;;;;;;-1.17;70.66;101265.55;105598;1281;24796;-77
2022/01/18 05:40:36;;;;;;;4.80;2.60;;;;;;;-1.18;70.56;101268.64;105187;1285;22661;-77
2022/01/18 05:43:03;;;;;;;7.00;3.50;;;;;;;-1.22;70.61;101267.02;105246;1284;22547;-75
2022/01/18 05:45:32;;;;;;;9.60;2.90;;;;;;;-1.21;70.55;101268.80;105139;1284;24219;-78
2022/01/18 05:47:59;;;;;;;9.10;2.80;;;;;;;-1.22;70.66;101275.52;106301;1280;22569;-83
2022/01/18 05:50:26;;;;;;;6.80;3.10;;;;;;;-1.17;71.21;101272.84;106316;1277;24283;-78
2022/01/18 05:52:53;;;;;;;6.20;2.80;;;;;;;-1.10;70.86;101263.02;105973;1276;22498;-76
2022/01/18 05:55:20;;;;;;;6.80;3.00;;;;;;;-1.07;70.80;101271.10;106467;1276;22760;-78
2022/01/18 05:57:47;;;;;;;8.10;3.00;;;;;;;-1.11;70.70;101270.55;107398;1276;22913;-80
2022/01/18 06:00:21;;;;;;;7.00;2.30;;;;;;;-1.15;70.83;101271.23;109043;1270;22555;-79
2022/01/18 06:08:17;;;;;;;4.70;2.00;;;;;;;-1.17;70.99;101271.09;107075;1270;23188;-79
2022/01/18 06:10:44;;;;;;;5.50;2.20;;;;;;;-1.22;71.15;101276.40;106796;1270;22626;-80
2022/01/18 06:13:16;;;;;;;7.70;2.70;;;;;;;-1.22;71.45;101287.63;106407;1270;22733;-78
2022/01/18 06:15:44;;;;;;;6.50;2.70;;;;;;;-1.21;71.36;101285.44;106457;1270;24296;-82
2022/01/18 06:18:14;;;;;;;9.10;2.60;;;;;;;-1.21;71.44;101288.02;106257;1271;24090;-78
2022/01/18 06:20:43;;;;;;;4.30;2.30;;;;;;;-1.20;71.43;101294.27;106314;1270;24280;-83
2022/01/18 06:23:15;;;;;;;5.00;2.50;;;;;;;-1.19;71.37;101298.64;106156;1274;22538;-83
2022/01/18 06:25:42;;;;;;;6.30;2.60;;;;;;;-1.20;71.44;101298.43;106268;1277;24139;-81
2022/01/18 06:28:09;;;;;;;8.10;2.90;;;;;;;-1.19;71.60;101302.45;106141;1277;25308;-79
2022/01/18 06:30:41;;;;;;;6.90;2.40;;;;;;;-1.19;71.79;101305.73;106095;1276;23937;-82
2022/01/18 06:33:09;;;;;;;4.80;2.20;;;;;;;-1.16;71.88;101309.38;106101;1276;24422;-81
2022/01/18 06:35:38;;;;;;;6.90;2.80;;;;;;;-1.16;71.83;101312.69;106983;1276;22582;-80
2022/01/18 06:38:08;;;;;;;5.40;2.70;;;;;;;-1.17;71.98;101312.95;106573;1276;25568;-80
2022/01/18 06:40:38;;;;;;;5.70;2.70;;;;;;;-1.17;71.97;101312.57;106135;1270;24810;-80
2022/01/18 06:43:05;;;;;;;7.30;2.50;;;;;;;-1.19;71.94;101312.34;106350;1270;22775;-81
2022/01/18 06:45:36;;;;;;;9.60;3.50;;;;;;;-1.16;72.11;101319.39;106422;1270;22538;-80
2022/01/18 06:48:03;;;;;;;9.50;3.60;;;;;;;-1.17;72.33;101322.98;106180;1270;25362;-80
2022/01/18 06:50:32;;;;;;;9.70;3.10;;;;;;;-1.17;72.24;101322.10;105961;1277;24344;-79
2022/01/18 06:53:06;;;;;;;11.20;3.50;;;;;;;-1.16;72.33;101325.61;106413;1276;22502;-80
2022/01/18 06:55:34;;;;;;;5.60;2.80;;;;;;;-1.18;72.37;101325.83;108245;1274;22741;-78
2022/01/18 06:58:01;;;;;;;8.60;2.70;;;;;;;-1.16;72.56;101330.77;107140;1279;22582;-77
2022/01/18 07:00:34;;;;;;;6.90;3.20;;;;;;;-1.12;72.47;101333.95;106050;1287;22828;-80
2022/01/18 07:03:01;;;;;;;4.80;2.70;;;;;;;-1.10;72.27;101338.40;105172;1287;22759;-87
2022/01/18 07:05:33;;;;;;;11.00;2.70;;;;;;;-1.06;72.52;101345.86;105145;1285;23173;-81
2022/01/18 07:08:01;;;;;;;9.60;3.00;;;;;;;-1.06;72.39;101348.09;104853;1286;25355;-78
2022/01/18 07:10:31;;;;;;;6.00;2.50;;;;;;;-1.06;72.60;101346.55;104925;1286;24411;-84
2022/01/18 07:13:00;;;;;;;5.80;2.20;;;;;;;-1.06;72.56;101346.73;105237;1284;25377;-80
2022/01/18 07:15:29;;;;;;;5.10;2.50;;;;;;;-1.05;72.68;101354.37;105047;1282;25037;-83
2022/01/18 07:17:57;;;;;;;7.20;3.00;;;;;;;-1.08;72.72;101360.94;105384;1279;22626;-82
2022/01/18 07:20:40;;;;;;;7.30;2.50;;;;;;;-1.07;72.81;101362.05;106140;1274;22641;-82
2022/01/18 07:23:11;;;;;;;6.50;2.90;;;;;;;-1.03;72.79;101366.77;106084;1276;25238;-89
2022/01/18 07:25:45;;;;;;;6.60;3.90;;;;;;;-1.02;72.81;101370.31;106139;1273;25495;-83
2022/01/18 07:28:18;;;;;;;10.80;3.30;;;;;;;-0.96;72.79;101370.45;106086;1271;22553;-78
2022/01/18 07:30:46;;;;;;;5.10;2.40;;;;;;;-0.90;72.67;101379.05;106445;1271;22789;-84
2022/01/18 07:33:14;;;;;;;8.30;3.70;;;;;;;-0.90;72.63;101383.54;106156;1271;25242;-83
2022/01/18 07:35:44;;;;;;;8.40;3.60;;;;;;;-0.86;72.75;101383.75;106269;1271;22537;-85
2022/01/18 07:38:14;;;;;;;6.80;3.20;;;;;;;-0.85;72.65;101389.19;106168;1271;22564;-81
2022/01/18 07:40:44;;;;;;;6.40;3.40;;;;;;;-0.84;72.69;101396.84;106021;1277;24514;-82
2022/01/18 07:43:16;;;;;;;12.10;4.30;;;;;;;-0.81;72.69;101404.11;105595;1277;22723;-80
2022/01/18 07:45:45;;;;;;;13.60;4.40;;;;;;;-0.77;72.74;101410.02;105857;1276;22547;-79
2022/01/18 07:48:13;;;;;;;9.20;3.10;;;;;;;-0.72;72.74;101413.88;106350;1274;24256;-81
2022/01/18 07:50:41;;;;;;;10.00;4.20;;;;;;;-0.65;72.67;101416.48;105785;1275;24287;-81
2022/01/18 07:53:10;;;;;;;13.70;5.30;;;;;;;-0.62;72.49;101422.88;105784;1276;22866;-76
2022/01/18 07:55:37;;;;;;;13.50;4.10;;;;;;;-0.58;72.58;101425.02;105942;1275;25320;-80
2022/01/18 07:58:05;;;;;;;10.90;4.20;;;;;;;-0.47;72.54;101428.17;105722;1275;22574;-80
2022/01/18 08:00:34;;;;;;;10.90;4.10;;;;;;;-0.41;72.44;101430.58;106258;1271;25599;-82
2022/01/18 08:03:01;;;;;;;12.80;4.10;;;;;;;-0.31;72.32;101431.76;106293;1270;24367;-81
2022/01/18 08:05:28;;;;;;;9.00;4.10;;;;;;;-0.18;72.30;101434.65;106260;1270;22735;-81
2022/01/18 08:07:55;;;;;;;10.30;3.90;;;;;;;-0.09;72.24;101440.02;106272;1270;25321;-82
2022/01/18 08:10:23;;;;;;;9.50;3.40;;;;;;;-0.00;72.12;101439.38;105708;1276;24291;-84
2022/01/18 08:12:51;;;;;;;11.40;4.10;;;;;;;0.12;71.80;101446.58;106415;1274;24304;-83
2022/01/18 08:15:21;;;;;;;8.10;2.90;;;;;;;0.22;71.74;101449.48;106042;1274;25369;-82
2022/01/18 08:17:53;;;;;;;9.70;3.70;;;;;;;0.34;71.45;101451.84;106045;1276;25428;-81
2022/01/18 08:20:21;;;;;;;8.50;3.50;;;;;;;0.47;71.49;101448.30;106100;1275;25873;-79
2022/01/18 08:22:48;;;;;;;11.10;3.90;;;;;;;0.59;71.24;101453.06;106069;1274;24366;-82
2022/01/18 08:25:16;;;;;;;11.30;3.50;;;;;;;0.63;70.75;101452.71;105916;1274;25332;-82
2022/01/18 08:27:45;;;;;;;7.30;2.90;;;;;;;0.60;70.80;101459.00;106148;1270;25308;-79
2022/01/18 08:30:17;;;;;;;10.40;3.20;;;;;;;0.55;70.73;101465.70;106403;1270;23978;-77
2022/01/18 08:32:45;;;;;;;9.00;3.30;;;;;;;0.46;70.81;101473.77;106518;1270;25255;-79
2022/01/18 08:35:12;;;;;;;7.80;3.10;;;;;;;0.43;70.91;101480.02;106195;1270;22669;-80
2022/01/18 08:37:40;;;;;;;9.90;4.20;;;;;;;0.42;71.10;101486.20;106443;1270;24330;-79
2022/01/18 08:40:09;;;;;;;11.50;4.10;;;;;;;0.47;71.05;101490.08;106349;1270;22871;-80
2022/01/18 08:42:36;;;;;;;3.40;2.30;;;;;;;0.53;71.14;101500.77;106424;1268;25239;-87
2022/01/18 08:45:04;;;;;;;9.20;3.20;;;;;;;0.54;70.80;101506.19;106495;1267;22863;-79
2022/01/18 08:47:31;;;;;;;6.70;2.90;;;;;;;0.54;70.91;101508.27;106450;1269;24046;-81
2022/01/18 08:49:58;;;;;;;8.50;3.20;;;;;;;0.57;70.90;101503.38;106429;1271;24081;-81
2022/01/18 08:52:26;;;;;;;7.50;2.80;;;;;;;0.57;70.62;101512.61;106245;1270;22564;-81
2022/01/18 08:54:53;;;;;;;6.90;2.60;;;;;;;0.62;70.74;101521.84;106414;1271;22632;-81
2022/01/18 08:57:20;;;;;;;5.20;2.60;;;;;;;0.66;70.65;101526.54;106477;1268;22694;-81
2022/01/18 08:59:49;;;;;;;7.80;3.30;;;;;;;0.70;70.60;101535.97;106353;1269;22595;-81
2022/01/18 09:02:17;;;;;;;9.20;3.10;;;;;;;0.79;70.54;101541.23;106275;1271;25233;-80
2022/01/18 09:04:45;;;;;;;5.90;2.90;;;;;;;0.82;70.36;101543.44;106497;1268;23917;-81
2022/01/18 09:07:16;;;;;;;6.20;2.40;;;;;;;0.90;70.46;101551.98;106183;1271;22753;-81
2022/01/18 09:09:45;;;;;;;6.90;2.70;;;;;;;0.98;69.96;101552.23;106535;1270;22566;-79
2022/01/18 09:12:17;;;;;;;5.60;2.70;;;;;;;0.98;69.86;101559.84;106208;1270;22751;-87
2022/01/18 09:14:44;;;;;;;8.90;3.60;;;;;;;1.05;69.94;101562.77;106801;1270;22538;-76
2022/01/18 09:17:12;;;;;;;4.10;2.10;;;;;;;1.11;69.76;101562.73;106383;1270;22539;-80
2022/01/18 09:19:39;;;;;;;9.30;3.60;;;;;;;1.14;69.55;101565.46;106533;1270;23006;-80
2022/01/18 09:22:06;;;;;;;7.30;3.10;;;;;;;1.20;69.38;101571.13;106522;1268;22536;-81
2022/01/18 09:24:33;;;;;;;6.20;3.20;;;;;;;1.23;69.38;101569.71;106184;1271;22538;-81
2022/01/18 09:27:00;;;;;;;8.40;3.30;;;;;;;1.27;69.36;101565.20;106206;1268;22560;-82
2022/01/18 09:29:29;;;;;;;7.60;3.30;;;;;;;1.32;69.23;101565.98;106793;1267;24358;-80
2022/01/18 09:31:57;;;;;;;5.00;2.90;;;;;;;1.40;69.42;101570.34;106272;1271;25271;-86
2022/01/18 09:34:24;;;;;;;9.50;3.20;;;;;;;1.42;69.65;101571.33;106259;1271;22737;-78
2022/01/18 09:36:51;;;;;;;9.70;3.90;;;;;;;1.53;69.88;101578.09;106290;1270;25266;-83
2022/01/18 09:39:18;;;;;;;10.40;3.50;;;;;;;1.68;69.57;101580.16;106178;1271;22552;-83
2022/01/18 09:41:50;;;;;;;5.70;2.90;;;;;;;1.68;68.86;101588.30;106305;1271;25247;-83
2022/01/18 09:44:18;;;;;;;3.90;2.50;;;;;;;1.66;68.83;101592.73;106190;1271;24776;-84
2022/01/18 09:46:48;;;;;;;6.50;3.50;;;;;;;1.68;68.60;101594.36;106449;1270;24312;-83
2022/01/18 09:49:17;;;;;;;5.40;2.80;;;;;;;1.83;68.98;101597.66;106341;1270;24209;-84
2022/01/18 09:51:45;;;;;;;9.70;4.10;;;;;;;1.98;68.32;101599.42;105946;1278;23449;-84
2022/01/18 09:54:12;;;;;;;9.90;4.50;;;;;;;2.14;68.34;101604.64;105991;1276;22948;-83
2022/01/18 09:56:38;;;;;;;7.10;3.00;;;;;;;2.35;67.92;101609.91;105996;1274;23089;-85
2022/01/18 09:59:06;;;;;;;10.90;4.40;;;;;;;2.56;67.22;101614.96;105869;1276;24464;-84
2022/01/18 10:01:34;;;;;;;10.90;3.70;;;;;;;2.73;67.21;101618.85;105680;1276;23127;-86
2022/01/18 10:04:20;;;;;;;6.20;3.30;;;;;;;3.00;66.91;101621.86;105759;1276;22708;-84
2022/01/18 10:06:51;;;;;;;9.10;4.20;;;;;;;3.18;65.65;101628.72;105768;1276;25422;-82
2022/01/18 10:09:19;;;;;;;6.70;3.60;;;;;;;3.26;65.93;101620.85;106111;1271;25639;-83
2022/01/18 10:12:08;;;;;;;7.60;3.30;;;;;;;3.49;65.66;101620.52;106473;1271;22849;-82
2022/01/18 10:14:40;;;;;;;7.00;3.60;;;;;;;3.53;64.42;101623.48;106460;1270;24733;-84
2022/01/18 10:17:10;;;;;;;5.40;3.70;;;;;;;3.57;64.87;101623.12;106462;1270;24260;-82
2022/01/18 10:19:48;;;;;;;8.80;4.10;;;;;;;3.79;65.04;101621.69;106613;1270;22726;-84
2022/01/18 10:22:20;;;;;;;8.50;3.60;;;;;;;4.05;64.32;101621.81;106911;1271;22729;-83
2022/01/18 10:24:47;;;;;;;11.00;4.80;;;;;;;4.14;63.92;101624.58;106812;1271;22856;-85
2022/01/18 10:27:14;;;;;;;9.20;3.80;;;;;;;4.34;63.95;101630.70;106307;1271;22635;-83
2022/01/18 10:29:44;;;;;;;8.30;3.60;;;;;;;4.49;63.06;101632.10;106297;1271;25255;-84
2022/01/18 10:32:16;;;;;;;7.60;3.60;;;;;;;4.42;61.75;101635.36;106350;1270;24352;-81
2022/01/18 10:37:21;;;;;;;6.60;3.50;;;;;;;4.35;62.83;101645.73;106407;1271;22665;-83
2022/01/18 10:40:26;;;;;;;9.90;4.00;;;;;;;4.60;63.02;101660.77;106244;1271;25235;-83
2022/01/18 10:42:54;;;;;;;6.70;3.60;;;;;;;4.87;62.03;101662.42;106299;1271;22541;-83
2022/01/18 10:45:27;;;;;;;7.40;3.20;;;;;;;4.83;61.18;101671.55;106390;1271;24349;-83
2022/01/18 10:47:59;;;;;;;7.30;3.30;;;;;;;4.81;61.11;101675.29;106163;1276;25377;-83
2022/01/18 10:50:35;;;;;;;6.40;3.90;;;;;;;4.94;61.27;101675.21;106139;1274;22671;-84
2022/01/18 10:53:21;;;;;;;9.50;3.30;;;;;;;4.95;60.55;101671.07;106396;1275;22546;-83
2022/01/18 10:55:50;;;;;;;7.90;3.10;;;;;;;4.98;60.36;101668.89;106179;1275;157143;-84
2022/01/18 10:58:21;;;;;;;8.70;3.40;;;;;;;5.11;60.89;101670.55;106212;1274;24287;-84
2022/01/18 11:00:49;;;;;;;7.10;3.70;;;;;;;5.34;60.59;101671.48;106246;1274;22811;-83
2022/01/18 11:03:16;;;;;;;8.00;3.50;;;;;;;5.51;59.87;101668.18;106202;1274;24328;-83
2022/01/18 11:05:46;;;;;;;5.40;3.20;;;;;;;5.63;59.65;101667.35;106164;1271;24255;-82
2022/01/18 11:08:18;;;;;;;7.10;3.40;;;;;;;5.65;59.10;101674.05;106856;1271;22947;-82
2022/01/18 11:10:47;;;;;;;8.20;3.60;;;;;;;5.69;59.14;101677.16;106488;1271;22596;-82
2022/01/18 11:13:34;;;;;;;8.30;4.50;;;;;;;5.85;59.36;101675.71;106622;1270;22556;-81
2022/01/18 11:16:12;;;;;;;8.50;4.00;;;;;;;5.89;58.64;101677.42;106769;1270;24134;-82
2022/01/18 11:18:45;;;;;;;7.80;4.30;;;;;;;5.92;58.74;101679.96;106480;1271;25595;-83
2022/01/18 11:21:18;;;;;;;6.70;3.80;;;;;;;6.07;58.35;101678.68;106891;1270;26519;-81
2022/01/18 11:23:46;;;;;;;7.20;4.10;;;;;;;6.03;57.87;101676.45;106753;1270;26509;-84
2022/01/18 11:26:17;;;;;;;7.50;3.40;;;;;;;5.96;57.70;101678.86;107396;1268;24397;-84
2022/01/18 11:28:44;;;;;;;8.50;3.30;;;;;;;5.99;58.23;101680.88;108423;1268;22471;-84
2022/01/18 11:31:11;;;;;;;10.30;4.00;;;;;;;6.22;58.35;101682.98;107597;1270;22547;-84
2022/01/18 11:33:49;;;;;;;8.60;3.60;;;;;;;6.40;57.90;101672.48;107924;1268;25869;-82
2022/01/18 11:36:23;;;;;;;6.60;3.30;;;;;;;6.51;57.63;101683.65;107094;1271;22563;-83
2022/01/18 11:38:56;;;;;;;8.70;3.90;;;;;;;6.71;57.30;101692.94;106730;1271;23068;-83
2022/01/18 11:41:24;;;;;;;7.50;3.60;;;;;;;6.74;56.15;101692.84;106428;1274;22559;-83
2022/01/18 11:43:52;;;;;;;8.30;4.00;;;;;;;6.62;56.48;101695.16;105972;1278;25349;-84
2022/01/18 11:46:28;;;;;;;9.70;3.40;;;;;;;6.60;56.03;101697.56;105923;1278;25848;-84
2022/01/18 11:49:14;;;;;;;11.20;4.20;;;;;;;6.43;55.58;101700.02;105975;1277;22706;-83
2022/01/18 11:51:55;;;;;;;10.10;3.80;;;;;;;6.30;56.24;101705.28;106924;1276;25482;-83
2022/01/18 11:57:22;;;;;;;9.10;4.30;;;;;;;5.99;55.85;101700.13;106839;1277;22674;-84
2022/01/18 11:59:54;;;;;;;7.20;3.70;;;;;;;5.89;56.58;101693.14;106371;1281;23621;-84
2022/01/18 12:02:28;;;;;;;10.40;4.10;;;;;;;5.94;56.78;101692.96;106104;1278;25539;-85
2022/01/18 12:04:56;;;;;;;8.30;3.50;;;;;;;6.12;56.87;101694.95;106601;1277;24341;-84
2022/01/18 12:07:33;;;;;;;11.20;4.20;;;;;;;6.19;55.82;101697.76;106576;1278;22557;-84
2022/01/18 12:10:05;;;;;;;8.00;3.50;;;;;;;6.55;55.70;101696.89;106121;1280;22660;-84
2022/01/18 12:12:41;;;;;;;6.40;3.40;;;;;;;7.18;55.18;101695.24;106141;1280;22550;-84
2022/01/18 12:15:36;;;;;;;7.20;3.40;;;;;;;7.61;54.22;101687.55;106104;1278;22563;-84
2022/01/18 12:18:15;;;;;;;9.30;4.50;;;;;;;7.94;53.80;101693.58;106073;1277;25359;-84
2022/01/18 12:20:44;;;;;;;8.40;4.10;;;;;;;8.40;53.52;101696.66;105981;1275;22661;-84
2022/01/18 12:23:47;;;;;;;7.10;3.70;;;;;;;8.43;52.02;101707.07;106544;1271;22536;-84
2022/01/18 12:26:34;;;;;;;8.10;3.80;;;;;;;8.08;52.31;101718.77;106656;1268;24387;-83
2022/01/18 12:29:46;;;;;;;7.10;4.40;;;;;;;7.80;52.89;101717.62;106944;1268;22604;-82
2022/01/18 12:34:46;;;;;;;4.00;2.60;;;;;;;7.36;53.49;101727.60;106295;1274;23941;-85
2022/01/18 12:37:27;;;;;;;8.90;3.90;;;;;;;7.16;53.56;101731.98;106375;1275;22667;-84
2022/01/18 12:39:54;;;;;;;7.00;3.90;;;;;;;6.81;53.75;101733.48;106288;1274;22602;-85
2022/01/18 12:45:20;;;;;;;10.60;4.50;;;;;;;6.41;54.85;101736.02;106376;1274;25252;-84
2022/01/18 12:47:49;;;;;;;7.10;3.90;;;;;;;6.25;55.00;101737.83;106577;1274;24311;-83
2022/01/18 12:50:22;;;;;;;8.70;3.90;;;;;;;5.85;55.18;101747.94;106298;1274;26161;-82
2022/01/18 12:52:52;;;;;;;9.10;4.30;;;;;;;5.49;55.73;101746.96;106435;1271;22550;-84
2022/01/18 12:55:42;;;;;;;7.70;4.60;;;;;;;5.11;56.17;101752.79;106625;1268;25240;-83
2022/01/18 12:58:32;;;;;;;8.40;3.60;;;;;;;5.01;57.44;101753.34;106563;1268;22555;-86
2022/01/18 13:01:09;;;;;;;9.60;4.30;;;;;;;5.02;57.41;101755.29;106724;1271;22600;-85
2022/01/18 13:03:43;;;;;;;10.10;4.50;;;;;;;4.96;57.95;101761.36;106702;1274;22573;-85
2022/01/18 13:06:16;;;;;;;10.20;5.40;;;;;;;5.02;57.88;101762.62;107007;1277;24254;-84